Time;durP1;ratioP1;P1;durP2;ratioP2;P2;SDS_P1;SDS_P2;PMS_P1;PMS_P2;Temp;Humidity;BMP_temperature;BMP_pressure;BME280_temperature;BME280_humidity;BME280_pressure;Samples;Min_cycle;Max_cycle;Signal;HPM_P1;HPM_P2
2023/03/03 06:09:51;;;;;;;15.13;7.40;;;;;;;;;;6361512;22;20070;-84
2023/03/03 06:12:18;;;;;;;17.27;8.10;;;;;;;;;;6347579;22;20041;-84
2023/03/03 06:15:24;;;;;;;19.30;8.35;;;;;;;;;;6375750;22;20029;-84
2023/03/03 06:18:16;;;;;;;19.42;8.18;;;;;;;;;;6375359;22;20022;-84
2023/03/03 06:20:53;;;;;;;18.67;8.13;;;;;;;;;;6375219;22;20014;-84
2023/03/03 06:23:21;;;;;;;18.38;7.95;;;;;;;;;;6375173;22;20015;-83
2023/03/03 06:25:54;;;;;;;19.27;8.32;;;;;;;;;;6375298;22;20025;-84
2023/03/03 06:28:23;;;;;;;14.88;7.50;;;;;;;;;;6375159;22;20015;-84
2023/03/03 06:30:56;;;;;;;15.60;8.52;;;;;;;;;;6375258;22;20011;-83
2023/03/03 06:33:24;;;;;;;18.55;7.90;;;;;;;;;;6375155;22;20018;-83
2023/03/03 06:36:17;;;;;;;16.73;7.57;;;;;;;;;;6375561;22;20013;-83
2023/03/03 06:38:45;;;;;;;17.17;8.50;;;;;;;;;;6375350;22;20018;-83
2023/03/03 06:41:23;;;;;;;17.60;8.15;;;;;;;;;;6375566;22;20010;-83
2023/03/03 06:44:01;;;;;;;15.23;7.85;;;;;;;;;;6376947;22;20025;-83
2023/03/03 06:46:28;;;;;;;17.88;7.70;;;;;;;;;;6377570;22;20384;-83
2023/03/03 06:49:20;;;;;;;17.15;7.57;;;;;;;;;;6318618;22;20022;-83
2023/03/03 06:51:49;;;;;;;19.50;7.20;;;;;;;;;;6376885;22;20083;-83
2023/03/03 06:54:27;;;;;;;17.20;8.00;;;;;;;;;;6377624;22;20426;-83
2023/03/03 06:57:33;;;;;;;16.13;7.28;;;;;;;;;;6377406;22;20018;-83
2023/03/03 07:00:09;;;;;;;21.10;9.00;;;;;;;;;;6376927;22;20032;-83
2023/03/03 07:02:36;;;;;;;15.55;7.68;;;;;;;;;;6376996;22;20093;-83
2023/03/03 07:05:11;;;;;;;17.35;7.32;;;;;;;;;;6377418;22;20018;-83
2023/03/03 07:07:55;;;;;;;16.90;7.88;;;;;;;;;;6337435;22;20048;-84
2023/03/03 07:10:41;;;;;;;18.33;8.85;;;;;;;;;;6347610;22;20018;-83
2023/03/03 07:13:25;;;;;;;21.20;8.40;;;;;;;;;;6377011;22;20371;-83
2023/03/03 07:16:19;;;;;;;16.42;7.25;;;;;;;;;;6376453;22;20095;-83
2023/03/03 07:19:02;;;;;;;16.67;7.55;;;;;;;;;;6377679;22;20018;-83
2023/03/03 07:21:36;;;;;;;18.17;7.25;;;;;;;;;;6350721;22;20085;-82
2023/03/03 07:24:25;;;;;;;15.75;7.00;;;;;;;;;;6349710;22;20014;-83
2023/03/03 07:27:07;;;;;;;18.73;7.70;;;;;;;;;;6378675;22;20346;-84
2023/03/03 07:29:53;;;;;;;17.15;7.45;;;;;;;;;;6330279;22;20018;-84
2023/03/03 07:34:15;;;;;;;16.35;6.28;;;;;;;;;;6278226;22;20031;-84
2023/03/03 07:37:37;;;;;;;15.35;6.78;;;;;;;;;;6301211;22;20011;-84
2023/03/03 07:40:33;;;;;;;12.68;6.32;;;;;;;;;;6310641;22;20489;-84
2023/03/03 07:43:36;;;;;;;14.95;6.35;;;;;;;;;;6306339;22;20144;-84
2023/03/03 07:46:21;;;;;;;13.80;5.75;;;;;;;;;;6272680;22;20023;-84
2023/03/03 07:49:37;;;;;;;15.75;6.90;;;;;;;;;;6280177;22;20471;-85
2023/03/03 07:52:38;;;;;;;12.77;6.80;;;;;;;;;;6285712;22;20406;-85
2023/03/03 07:55:38;;;;;;;12.32;6.60;;;;;;;;;;6252373;22;20019;-83
2023/03/03 07:58:30;;;;;;;15.40;6.60;;;;;;;;;;6297547;22;20447;-83
2023/03/03 08:01:09;;;;;;;15.40;6.90;;;;;;;;;;6309160;22;20019;-83
2023/03/03 08:03:50;;;;;;;16.20;7.03;;;;;;;;;;6286249;22;20015;-83
2023/03/03 08:06:35;;;;;;;15.32;6.82;;;;;;;;;;6308620;22;20524;-85
2023/03/03 08:09:40;;;;;;;14.63;6.80;;;;;;;;;;6288368;22;20165;-83
2023/03/03 08:12:37;;;;;;;15.50;7.38;;;;;;;;;;6308875;22;20023;-83
2023/03/03 08:15:31;;;;;;;16.85;7.70;;;;;;;;;;6310402;22;20038;-83
2023/03/03 08:18:18;;;;;;;16.30;7.28;;;;;;;;;;6246155;22;20030;-83
2023/03/03 08:20:54;;;;;;;13.60;6.68;;;;;;;;;;6273562;22;20023;-83
2023/03/03 08:23:22;;;;;;;12.63;6.65;;;;;;;;;;6294814;22;20339;-83
2023/03/03 08:25:51;;;;;;;13.43;6.15;;;;;;;;;;6377109;22;20024;-83
2023/03/03 08:28:24;;;;;;;12.10;6.32;;;;;;;;;;6375461;22;20018;-82
2023/03/03 08:30:52;;;;;;;12.00;5.57;;;;;;;;;;6374078;22;20010;-82
2023/03/03 08:33:32;;;;;;;11.32;5.97;;;;;;;;;;6348387;22;20021;-83
2023/03/03 08:36:24;;;;;;;14.25;6.25;;;;;;;;;;6352706;22;20014;-82
2023/03/03 08:38:52;;;;;;;15.75;6.53;;;;;;;;;;6369482;22;20034;-83
2023/03/03 08:41:20;;;;;;;14.18;7.13;;;;;;;;;;6375002;22;20079;-83
2023/03/03 08:43:48;;;;;;;13.93;6.70;;;;;;;;;;6375273;22;20042;-83
2023/03/03 08:46:16;;;;;;;11.52;5.63;;;;;;;;;;6374692;22;20018;-83
2023/03/03 08:48:44;;;;;;;13.35;6.53;;;;;;;;;;6375118;22;20514;-83
2023/03/03 08:51:12;;;;;;;13.13;5.95;;;;;;;;;;6375678;22;20067;-83
2023/03/03 08:56:32;;;;;;;12.70;5.53;;;;;;;;;;6376402;22;20022;-82
2023/03/03 08:59:00;;;;;;;10.75;5.25;;;;;;;;;;6375575;22;20018;-83
2023/03/03 09:01:31;;;;;;;13.20;5.78;;;;;;;;;;6310252;22;20026;-83
2023/03/03 09:04:04;;;;;;;13.52;6.18;;;;;;;;;;6375413;22;20083;-82
2023/03/03 09:06:32;;;;;;;10.95;5.07;;;;;;;;;;6336649;22;20026;-82
2023/03/03 09:09:01;;;;;;;12.90;5.15;;;;;;;;;;6375599;22;20025;-82
2023/03/03 09:12:01;;;;;;;9.82;4.60;;;;;;;;;;6375776;22;20014;-83
2023/03/03 09:14:34;;;;;;;12.50;5.22;;;;;;;;;;6374204;22;20022;-83
2023/03/03 09:17:22;;;;;;;13.38;4.90;;;;;;;;;;6372743;22;20033;-83
2023/03/03 09:19:51;;;;;;;13.98;5.57;;;;;;;;;;6348568;22;20033;-83
2023/03/03 09:22:23;;;;;;;10.30;5.15;;;;;;;;;;6375718;22;20446;-83
2023/03/03 09:24:54;;;;;;;9.25;4.63;;;;;;;;;;6375719;22;20032;-83
2023/03/03 09:30:39;;;;;;;13.88;4.55;;;;;;;;;;6376046;22;20018;-83
2023/03/03 09:34:00;;;;;;;11.07;4.82;;;;;;;;;;6373424;22;20032;-83
2023/03/03 09:36:36;;;;;;;12.05;5.28;;;;;;;;;;6375965;22;20438;-84
2023/03/03 09:39:20;;;;;;;11.20;5.15;;;;;;;;;;6376029;22;20041;-83
2023/03/03 09:42:12;;;;;;;12.10;5.15;;;;;;;;;;6347252;22;20452;-83
2023/03/03 09:44:54;;;;;;;12.38;6.03;;;;;;;;;;6348258;22;20022;-84
2023/03/03 09:47:45;;;;;;;14.55;5.55;;;;;;;;;;6346166;22;20018;-83
2023/03/03 09:50:40;;;;;;;13.82;5.20;;;;;;;;;;6374833;22;20029;-83
2023/03/03 09:53:26;;;;;;;13.48;5.50;;;;;;;;;;6375007;22;20454;-83
2023/03/03 09:56:27;;;;;;;12.73;5.45;;;;;;;;;;6375905;22;20018;-82
2023/03/03 09:59:06;;;;;;;13.82;5.82;;;;;;;;;;6375085;22;20057;-83
2023/03/03 10:01:47;;;;;;;11.32;5.65;;;;;;;;;;6335168;22;20022;-83
2023/03/03 10:04:39;;;;;;;15.98;6.38;;;;;;;;;;6345735;22;20029;-83
2023/03/03 10:07:44;;;;;;;13.27;5.45;;;;;;;;;;6375101;22;20222;-83
2023/03/03 10:11:03;;;;;;;12.00;5.20;;;;;;;;;;6376284;22;20093;-83
2023/03/03 10:14:04;;;;;;;11.63;5.47;;;;;;;;;;6217336;23;20028;-83
2023/03/03 10:16:52;;;;;;;11.93;5.20;;;;;;;;;;6126640;23;20477;-83
2023/03/03 10:19:20;;;;;;;10.43;4.93;;;;;;;;;;6128969;23;20026;-82
2023/03/03 10:22:16;;;;;;;14.07;5.75;;;;;;;;;;6129272;23;20018;-82
2023/03/03 10:25:26;;;;;;;13.35;5.55;;;;;;;;;;6129585;23;20081;-83
2023/03/03 10:28:17;;;;;;;11.45;5.28;;;;;;;;;;6069322;23;20467;-83
2023/03/03 10:31:15;;;;;;;12.10;5.50;;;;;;;;;;6038754;23;20054;-83
2023/03/03 10:37:31;;;;;;;10.98;5.60;;;;;;;;;;6070808;23;20538;-83
2023/03/03 10:40:31;;;;;;;15.98;6.60;;;;;;;;;;6071262;23;20061;-83
2023/03/03 10:43:44;;;;;;;15.27;6.63;;;;;;;;;;6035174;23;20026;-83
2023/03/03 10:46:35;;;;;;;15.98;7.03;;;;;;;;;;6067535;23;20037;-83
2023/03/03 10:49:56;;;;;;;17.33;6.32;;;;;;;;;;6143550;23;20157;-83
2023/03/03 10:53:14;;;;;;;16.98;6.85;;;;;;;;;;6240605;23;20028;-83
2023/03/03 10:55:50;;;;;;;19.90;7.13;;;;;;;;;;6248837;23;20044;-83
2023/03/03 10:58:56;;;;;;;18.77;7.75;;;;;;;;;;6223832;23;20535;-83
2023/03/03 11:01:29;;;;;;;19.50;7.35;;;;;;;;;;6248917;23;20020;-83
2023/03/03 11:04:26;;;;;;;15.48;7.15;;;;;;;;;;6247868;22;20030;-83
2023/03/03 11:07:46;;;;;;;16.40;7.00;;;;;;;;;;6375983;22;20381;-83
2023/03/03 11:10:51;;;;;;;19.98;8.07;;;;;;;;;;6218532;23;20028;-83
2023/03/03 11:13:47;;;;;;;21.25;7.95;;;;;;;;;;6215506;23;20020;-85
2023/03/03 11:16:34;;;;;;;23.38;8.45;;;;;;;;;;6216464;23;20098;-83
2023/03/03 11:19:42;;;;;;;24.25;9.43;;;;;;;;;;6194487;23;20531;-84
2023/03/03 11:22:25;;;;;;;23.88;9.20;;;;;;;;;;6206589;23;20028;-85
2023/03/03 11:25:33;;;;;;;23.10;7.82;;;;;;;;;;6214789;23;20050;-83
2023/03/03 11:28:30;;;;;;;22.75;8.35;;;;;;;;;;6216573;23;20025;-83
2023/03/03 11:31:18;;;;;;;24.88;8.63;;;;;;;;;;6170509;23;20478;-83
2023/03/03 11:34:44;;;;;;;24.08;8.90;;;;;;;;;;6183976;23;20449;-85
2023/03/03 11:37:47;;;;;;;22.80;8.32;;;;;;;;;;6169344;23;20024;-85
2023/03/03 11:40:42;;;;;;;24.35;8.80;;;;;;;;;;6185388;23;20445;-85
2023/03/03 11:43:36;;;;;;;20.95;8.48;;;;;;;;;;6197214;22;20023;-85
2023/03/03 11:46:29;;;;;;;20.40;8.45;;;;;;;;;;6362970;22;20026;-85
2023/03/03 11:49:32;;;;;;;19.27;8.93;;;;;;;;;;6336742;22;20069;-85
2023/03/03 11:53:19;;;;;;;17.52;8.00;;;;;;;;;;6346940;22;20105;-85
2023/03/03 11:56:18;;;;;;;19.23;7.75;;;;;;;;;;6348075;22;20018;-83
2023/03/03 11:59:01;;;;;;;20.05;8.40;;;;;;;;;;6375445;22;20056;-83
2023/03/03 12:01:53;;;;;;;20.70;8.25;;;;;;;;;;6345352;22;20014;-83
2023/03/03 12:04:50;;;;;;;22.77;8.57;;;;;;;;;;6323056;22;20041;-83
2023/03/03 12:07:50;;;;;;;19.92;8.35;;;;;;;;;;6351438;22;20097;-83
2023/03/03 12:11:27;;;;;;;18.65;8.40;;;;;;;;;;6376036;22;20014;-83
2023/03/03 12:14:27;;;;;;;22.60;8.85;;;;;;;;;;6349622;22;20026;-83
2023/03/03 12:17:34;;;;;;;18.70;8.48;;;;;;;;;;6371381;22;20085;-83
2023/03/03 12:20:44;;;;;;;20.60;8.77;;;;;;;;;;6336457;22;20105;-85
2023/03/03 12:23:28;;;;;;;21.45;8.60;;;;;;;;;;6363894;22;20485;-85
2023/03/03 12:26:19;;;;;;;19.92;8.95;;;;;;;;;;6312400;22;20025;-83
2023/03/03 12:29:40;;;;;;;18.05;8.65;;;;;;;;;;6336558;22;20023;-83
2023/03/03 12:32:55;;;;;;;15.77;8.15;;;;;;;;;;6216664;23;20123;-83
2023/03/03 12:36:11;;;;;;;19.15;7.18;;;;;;;;;;6193542;23;20091;-82
2023/03/03 12:39:10;;;;;;;13.88;6.50;;;;;;;;;;6217140;23;20027;-83
2023/03/03 12:42:15;;;;;;;17.35;7.00;;;;;;;;;;6180185;23;20028;-83
2023/03/03 12:45:08;;;;;;;12.13;5.68;;;;;;;;;;6155054;23;20048;-83
2023/03/03 12:48:31;;;;;;;14.13;6.32;;;;;;;;;;6204785;23;20095;-85
2023/03/03 12:51:24;;;;;;;15.02;6.30;;;;;;;;;;6215354;23;20039;-83
2023/03/03 12:54:23;;;;;;;19.48;6.55;;;;;;;;;;6204435;23;20044;-83
2023/03/03 12:57:29;;;;;;;13.68;6.25;;;;;;;;;;6218128;23;20020;-84
2023/03/03 13:00:48;;;;;;;16.42;5.38;;;;;;;;;;6164993;23;20055;-84
2023/03/03 13:04:07;;;;;;;15.93;6.18;;;;;;;;;;6185461;23;20602;-86
2023/03/03 13:07:44;;;;;;;13.82;5.55;;;;;;;;;;6206140;23;20400;-86
2023/03/03 13:11:11;;;;;;;10.98;4.65;;;;;;;;;;6375360;22;20044;-86
2023/03/03 13:14:25;;;;;;;11.05;4.78;;;;;;;;;;6371933;22;20022;-83
2023/03/03 13:17:15;;;;;;;16.95;5.60;;;;;;;;;;6321901;22;20125;-84
2023/03/03 13:20:41;;;;;;;11.75;4.10;;;;;;;;;;6314432;22;20026;-86
2023/03/03 13:23:54;;;;;;;10.13;3.85;;;;;;;;;;6363739;22;20089;-85
2023/03/03 13:26:42;;;;;;;14.85;3.88;;;;;;;;;;6310225;22;20052;-84
2023/03/03 13:29:44;;;;;;;8.27;3.42;;;;;;;;;;6364746;22;20030;-85
2023/03/03 13:32:38;;;;;;;19.30;3.83;;;;;;;;;;6343901;22;20018;-85
2023/03/03 13:35:44;;;;;;;9.70;3.35;;;;;;;;;;6346671;22;20018;-84
2023/03/03 13:38:39;;;;;;;9.60;3.53;;;;;;;;;;6363591;22;20029;-83
2023/03/03 13:41:37;;;;;;;7.45;2.78;;;;;;;;;;6335180;22;20124;-84
2023/03/03 13:44:35;;;;;;;7.68;2.75;;;;;;;;;;6373875;22;20079;-84
2023/03/03 13:47:41;;;;;;;8.48;3.00;;;;;;;;;;6335253;22;20339;-83
2023/03/03 13:50:30;;;;;;;10.27;2.80;;;;;;;;;;6349227;22;20049;-84
2023/03/03 13:53:58;;;;;;;8.20;2.83;;;;;;;;;;6335831;22;20042;-86
2023/03/03 13:57:43;;;;;;;7.25;2.13;;;;;;;;;;6362861;22;20046;-86
2023/03/03 14:01:21;;;;;;;6.28;2.30;;;;;;;;;;6190414;23;20024;-84
2023/03/03 14:04:23;;;;;;;4.95;1.70;;;;;;;;;;6096516;23;20345;-84
2023/03/03 14:07:38;;;;;;;4.53;1.60;;;;;;;;;;6098129;23;20066;-86
2023/03/03 14:11:46;;;;;;;4.53;1.23;;;;;;;;;;6088888;23;20113;-84
2023/03/03 14:14:26;;;;;;;6.50;1.30;;;;;;;;;;6073723;23;20037;-84
2023/03/03 14:17:39;;;;;;;2.70;1.20;;;;;;;;;;6071407;23;20038;-83
2023/03/03 14:20:30;;;;;;;8.07;1.27;;;;;;;;;;6095589;23;20092;-84
2023/03/03 14:23:48;;;;;;;3.42;1.60;;;;;;;;;;6096322;23;20479;-84
2023/03/03 14:26:51;;;;;;;5.93;1.00;;;;;;;;;;6087013;23;20030;-83
2023/03/03 14:29:27;;;;;;;4.55;1.00;;;;;;;;;;6097541;23;20054;-84
2023/03/03 14:32:24;;;;;;;6.80;1.23;;;;;;;;;;6061281;23;20188;-84
2023/03/03 14:35:18;;;;;;;3.47;1.05;;;;;;;;;;6213695;22;20552;-84
2023/03/03 14:42:01;;;;;;;3.70;0.90;;;;;;;;;;6355432;22;20080;-84
2023/03/03 14:46:25;;;;;;;3.25;0.98;;;;;;;;;;6296054;22;20031;-84
2023/03/03 14:49:59;;;;;;;3.58;1.00;;;;;;;;;;6212536;22;20379;-84
2023/03/03 14:53:05;;;;;;;5.30;0.93;;;;;;;;;;6308299;22;20030;-84
2023/03/03 14:55:36;;;;;;;3.25;1.10;;;;;;;;;;6308731;22;20023;-83
2023/03/03 14:58:40;;;;;;;3.45;1.13;;;;;;;;;;6308629;22;20407;-83
2023/03/03 15:01:29;;;;;;;3.20;1.05;;;;;;;;;;6308299;22;20071;-84
2023/03/03 15:04:24;;;;;;;7.80;1.08;;;;;;;;;;6308851;22;20471;-84
2023/03/03 15:07:24;;;;;;;6.03;1.10;;;;;;;;;;6305509;22;20058;-83
2023/03/03 15:10:12;;;;;;;1.98;1.10;;;;;;;;;;6273169;22;20038;-83
2023/03/03 15:12:54;;;;;;;5.80;0.93;;;;;;;;;;6252028;22;20024;-84
2023/03/03 15:15:26;;;;;;;3.05;1.10;;;;;;;;;;6297444;22;20022;-85
2023/03/03 15:18:12;;;;;;;6.82;1.20;;;;;;;;;;6304455;22;20026;-84
2023/03/03 15:21:14;;;;;;;4.45;1.10;;;;;;;;;;6343728;22;20410;-84
2023/03/03 15:24:26;;;;;;;7.35;1.13;;;;;;;;;;6332747;22;20105;-85
2023/03/03 15:27:50;;;;;;;3.72;1.00;;;;;;;;;;6333898;22;20110;-84
2023/03/03 15:32:03;;;;;;;4.10;1.33;;;;;;;;;;6321220;22;20026;-86
2023/03/03 15:35:13;;;;;;;4.82;1.48;;;;;;;;;;6162253;23;20168;-85
2023/03/03 15:38:38;;;;;;;5.03;1.25;;;;;;;;;;6165667;23;20084;-85
2023/03/03 15:41:37;;;;;;;3.88;1.20;;;;;;;;;;6100484;23;20030;-84
2023/03/03 15:44:15;;;;;;;4.07;1.77;;;;;;;;;;6075768;23;20082;-83
2023/03/03 15:47:05;;;;;;;5.13;1.42;;;;;;;;;;6065936;23;20030;-84
2023/03/03 15:49:46;;;;;;;4.82;1.27;;;;;;;;;;6099609;23;20093;-84
2023/03/03 15:53:04;;;;;;;6.50;1.85;;;;;;;;;;6099996;23;20029;-84
2023/03/03 15:55:53;;;;;;;9.23;1.58;;;;;;;;;;6068339;23;20026;-83
2023/03/03 15:58:50;;;;;;;8.43;1.65;;;;;;;;;;6100067;23;20030;-83
2023/03/03 16:01:34;;;;;;;9.38;1.20;;;;;;;;;;6076873;23;20159;-83
2023/03/03 16:04:30;;;;;;;6.57;1.40;;;;;;;;;;6078001;23;20018;-84
2023/03/03 16:07:01;;;;;;;7.40;2.00;;;;;;;;;;6097717;23;20022;-84
2023/03/03 16:09:43;;;;;;;3.78;1.45;;;;;;;;;;6089040;23;20105;-84
2023/03/03 16:12:20;;;;;;;9.27;1.75;;;;;;;;;;6200213;23;20016;-83
2023/03/03 16:15:01;;;;;;;6.78;1.48;;;;;;;;;;6248385;23;20471;-84
2023/03/03 16:18:15;;;;;;;12.95;2.55;;;;;;;;;;6265791;22;20026;-84
2023/03/03 16:21:35;;;;;;;9.90;1.90;;;;;;;;;;6341916;22;20019;-84
2023/03/03 16:24:32;;;;;;;3.30;1.40;;;;;;;;;;6340818;22;20076;-84
2023/03/03 16:27:14;;;;;;;8.40;1.80;;;;;;;;;;6316348;22;20615;-84
2023/03/03 16:30:23;;;;;;;14.15;1.73;;;;;;;;;;6318730;22;20030;-84
2023/03/03 16:33:14;;;;;;;16.02;2.13;;;;;;;;;;6313595;22;20015;-84
2023/03/03 16:36:10;;;;;;;16.23;2.22;;;;;;;;;;6340665;22;20057;-84
2023/03/03 16:39:05;;;;;;;5.93;1.30;;;;;;;;;;6303510;22;20031;-83
2023/03/03 16:41:39;;;;;;;8.18;1.65;;;;;;;;;;6342648;22;20011;-83
2023/03/03 16:44:34;;;;;;;9.50;1.75;;;;;;;;;;6342317;22;20049;-83
2023/03/03 16:47:41;;;;;;;;;;;;;;;;;;6331693;22;20046;-83
2023/03/03 16:50:25;;;;;;;13.07;1.88;;;;;;;;;;6333215;22;19914;-84
2023/03/03 16:53:05;;;;;;;8.95;1.58;;;;;;;;;;6342938;22;20096;-84
2023/03/03 16:55:45;;;;;;;13.25;1.77;;;;;;;;;;6316299;22;20022;-83
2023/03/03 16:58:18;;;;;;;6.78;1.75;;;;;;;;;;6305086;22;20030;-83
2023/03/03 17:01:20;;;;;;;10.18;1.70;;;;;;;;;;6344307;22;20072;-83
2023/03/03 17:04:12;;;;;;;11.18;1.70;;;;;;;;;;6343200;22;20015;-83
2023/03/03 17:06:58;;;;;;;5.10;1.77;;;;;;;;;;6316211;22;20011;-83
2023/03/03 17:09:48;;;;;;;10.82;1.92;;;;;;;;;;6370306;22;20049;-83
2023/03/03 17:12:52;;;;;;;10.30;2.00;;;;;;;;;;6347292;22;20030;-83
2023/03/03 17:15:51;;;;;;;13.27;1.75;;;;;;;;;;6311105;22;20460;-83
2023/03/03 17:18:39;;;;;;;8.40;2.05;;;;;;;;;;6375063;22;20098;-83
2023/03/03 17:22:07;;;;;;;9.07;1.58;;;;;;;;;;6374906;22;20010;-83
2023/03/03 17:25:06;;;;;;;15.20;1.90;;;;;;;;;;6376186;22;20018;-85
2023/03/03 17:27:59;;;;;;;11.88;1.67;;;;;;;;;;6349028;22;20072;-83
2023/03/03 17:30:46;;;;;;;18.13;2.10;;;;;;;;;;6376258;22;20022;-86
2023/03/03 17:33:58;;;;;;;10.77;1.65;;;;;;;;;;6337263;22;20036;-85
2023/03/03 17:37:18;;;;;;;5.18;1.45;;;;;;;;;;6338818;22;20026;-85
2023/03/03 17:40:22;;;;;;;11.95;2.38;;;;;;;;;;6349832;22;20018;-84
2023/03/03 17:43:26;;;;;;;15.27;2.03;;;;;;;;;;6375326;22;20025;-84
2023/03/03 17:46:46;;;;;;;16.65;2.10;;;;;;;;;;6357537;22;20427;-84
2023/03/03 17:49:45;;;;;;;7.38;1.42;;;;;;;;;;6353835;22;20018;-84
2023/03/03 17:53:00;;;;;;;11.48;2.28;;;;;;;;;;6376796;22;20045;-84
2023/03/03 17:56:01;;;;;;;19.30;2.88;;;;;;;;;;6375055;22;20018;-84
2023/03/03 17:58:48;;;;;;;10.77;1.40;;;;;;;;;;6376485;22;20022;-85
2023/03/03 18:02:05;;;;;;;12.65;1.98;;;;;;;;;;6372018;22;20091;-85
2023/03/03 18:05:26;;;;;;;14.52;3.05;;;;;;;;;;6339628;22;20101;-85
2023/03/03 18:08:15;;;;;;;13.40;2.10;;;;;;;;;;6375488;22;20030;-85
2023/03/03 18:11:09;;;;;;;10.32;1.95;;;;;;;;;;6311752;22;20033;-84
2023/03/03 18:13:42;;;;;;;11.13;2.47;;;;;;;;;;6348233;22;20018;-83
2023/03/03 18:16:39;;;;;;;9.25;1.55;;;;;;;;;;6337779;22;20018;-83
2023/03/03 18:19:45;;;;;;;8.57;2.30;;;;;;;;;;6347355;22;20042;-83
2023/03/03 18:22:21;;;;;;;13.85;2.35;;;;;;;;;;6375751;22;20011;-83
2023/03/03 18:25:00;;;;;;;14.80;1.85;;;;;;;;;;6337753;22;20030;-83
2023/03/03 18:27:58;;;;;;;8.35;2.00;;;;;;;;;;6354483;22;20014;-83
2023/03/03 18:30:27;;;;;;;11.95;1.85;;;;;;;;;;6376749;22;20018;-83
2023/03/03 18:32:56;;;;;;;13.43;2.03;;;;;;;;;;6336775;22;20022;-83
2023/03/03 18:35:32;;;;;;;13.60;2.15;;;;;;;;;;6348353;22;20024;-83
2023/03/03 18:38:24;;;;;;;15.98;3.10;;;;;;;;;;6338960;22;20030;-83
2023/03/03 18:40:58;;;;;;;18.10;2.00;;;;;;;;;;6339847;22;20014;-84
2023/03/03 18:43:41;;;;;;;13.20;2.40;;;;;;;;;;6377777;22;20067;-83
2023/03/03 18:46:23;;;;;;;13.90;1.80;;;;;;;;;;6339549;22;20030;-83
2023/03/03 18:49:07;;;;;;;16.35;2.63;;;;;;;;;;6324548;22;20089;-83
2023/03/03 18:51:37;;;;;;;16.90;2.08;;;;;;;;;;6350214;22;20063;-83
2023/03/03 18:54:28;;;;;;;13.88;1.98;;;;;;;;;;6378148;22;20022;-83
2023/03/03 18:57:03;;;;;;;9.82;1.67;;;;;;;;;;6338942;22;20022;-83
2023/03/03 18:59:31;;;;;;;9.60;1.73;;;;;;;;;;6377707;22;20014;-83
2023/03/03 19:02:37;;;;;;;15.98;2.35;;;;;;;;;;6373892;22;20144;-83
2023/03/03 19:05:31;;;;;;;11.57;2.28;;;;;;;;;;6377523;22;20010;-83
2023/03/03 19:08:02;;;;;;;14.30;2.35;;;;;;;;;;6378258;22;20018;-83
2023/03/03 19:10:58;;;;;;;11.15;2.78;;;;;;;;;;6350381;22;20358;-83
2023/03/03 19:13:33;;;;;;;17.42;3.20;;;;;;;;;;6349708;22;20014;-84
2023/03/03 19:16:03;;;;;;;12.38;1.83;;;;;;;;;;6377848;22;20013;-83
2023/03/03 19:18:45;;;;;;;15.43;2.75;;;;;;;;;;6348506;22;20028;-84
2023/03/03 19:21:21;;;;;;;22.30;2.58;;;;;;;;;;6338993;22;20101;-83
2023/03/03 19:24:28;;;;;;;16.48;2.10;;;;;;;;;;6377870;22;20022;-83
2023/03/03 19:27:05;;;;;;;15.73;2.28;;;;;;;;;;6377425;22;20028;-83
2023/03/03 19:29:44;;;;;;;12.45;2.58;;;;;;;;;;6349911;22;20085;-83
2023/03/03 19:32:42;;;;;;;17.55;2.35;;;;;;;;;;6376620;22;20010;-83
2023/03/03 19:35:33;;;;;;;13.98;2.90;;;;;;;;;;6356047;22;20472;-83
2023/03/03 19:38:20;;;;;;;18.35;2.75;;;;;;;;;;6378048;22;20018;-83
2023/03/03 19:41:14;;;;;;;14.52;2.28;;;;;;;;;;6350746;22;20022;-83
2023/03/03 19:43:57;;;;;;;16.17;2.50;;;;;;;;;;6377045;22;20338;-83
2023/03/03 19:46:51;;;;;;;23.95;3.53;;;;;;;;;;6350097;22;20025;-83
2023/03/03 19:49:56;;;;;;;13.48;2.30;;;;;;;;;;6376962;22;20026;-83
2023/03/03 19:52:43;;;;;;;11.35;2.78;;;;;;;;;;6350382;22;20021;-83
2023/03/03 19:55:58;;;;;;;18.45;2.25;;;;;;;;;;6377130;22;20014;-83
2023/03/03 19:58:47;;;;;;;10.70;2.20;;;;;;;;;;6377366;22;20014;-83
2023/03/03 20:01:59;;;;;;;21.70;2.53;;;;;;;;;;6376315;22;20025;-83
2023/03/03 20:04:46;;;;;;;12.50;1.92;;;;;;;;;;6376331;22;20465;-83
2023/03/03 20:08:02;;;;;;;15.48;2.42;;;;;;;;;;6348941;22;20375;-83
2023/03/03 20:10:51;;;;;;;20.20;2.67;;;;;;;;;;6219069;23;20435;-83
2023/03/03 20:13:31;;;;;;;18.05;2.30;;;;;;;;;;6219013;23;20024;-83
2023/03/03 20:16:15;;;;;;;15.85;2.53;;;;;;;;;;6219245;23;20025;-83
2023/03/03 20:18:57;;;;;;;28.13;3.95;;;;;;;;;;6216652;23;20051;-83
2023/03/03 20:21:43;;;;;;;16.55;2.72;;;;;;;;;;6218825;23;20028;-83
2023/03/03 20:24:35;;;;;;;16.65;3.05;;;;;;;;;;6192199;23;20029;-83
2023/03/03 20:27:49;;;;;;;12.45;2.80;;;;;;;;;;6217537;23;20087;-83
2023/03/03 20:30:52;;;;;;;13.85;2.45;;;;;;;;;;6193446;23;20353;-83
2023/03/03 20:33:47;;;;;;;28.52;3.40;;;;;;;;;;6192989;23;20028;-83
2023/03/03 20:36:31;;;;;;;20.15;2.85;;;;;;;;;;6217467;23;20051;-83
2023/03/03 20:39:12;;;;;;;14.40;2.95;;;;;;;;;;6218212;23;20025;-83
2023/03/03 20:42:28;;;;;;;24.67;2.95;;;;;;;;;;6217085;23;20357;-83
2023/03/03 20:45:10;;;;;;;14.95;2.92;;;;;;;;;;6301935;22;20044;-83
2023/03/03 20:47:45;;;;;;;12.63;2.47;;;;;;;;;;6374539;22;20037;-83
2023/03/03 20:50:38;;;;;;;23.58;3.33;;;;;;;;;;6286273;22;20026;-84
2023/03/03 20:53:30;;;;;;;21.27;3.05;;;;;;;;;;6376055;22;20136;-84
2023/03/03 20:56:07;;;;;;;16.13;3.58;;;;;;;;;;6375469;22;20022;-83
2023/03/03 20:58:40;;;;;;;23.13;4.43;;;;;;;;;;6375460;22;20521;-83
2023/03/03 21:01:20;;;;;;;21.02;3.65;;;;;;;;;;6347804;22;20029;-83
2023/03/03 21:03:48;;;;;;;14.60;2.78;;;;;;;;;;6344776;22;20042;-83
2023/03/03 21:06:43;;;;;;;12.02;2.80;;;;;;;;;;6375448;22;20019;-83
2023/03/03 21:09:40;;;;;;;21.98;3.25;;;;;;;;;;6368275;22;20473;-84
2023/03/03 21:12:32;;;;;;;18.48;3.13;;;;;;;;;;6216705;23;20107;-83
2023/03/03 21:15:27;;;;;;;17.35;2.88;;;;;;;;;;6214978;23;20028;-84
2023/03/03 21:18:20;;;;;;;16.45;2.63;;;;;;;;;;6189807;23;20031;-85
2023/03/03 21:20:57;;;;;;;24.95;3.65;;;;;;;;;;6184533;23;20095;-83
2023/03/03 21:23:24;;;;;;;21.08;2.90;;;;;;;;;;6182320;23;20050;-84
2023/03/03 21:25:54;;;;;;;18.23;3.50;;;;;;;;;;6217299;23;20443;-84
2023/03/03 21:28:28;;;;;;;21.27;3.25;;;;;;;;;;6216908;23;20031;-83
2023/03/03 21:31:16;;;;;;;22.17;2.67;;;;;;;;;;6217898;23;20025;-83
2023/03/03 21:33:56;;;;;;;18.75;2.83;;;;;;;;;;6215495;23;20016;-83
2023/03/03 21:36:33;;;;;;;18.73;2.30;;;;;;;;;;6192489;23;20035;-83
2023/03/03 21:39:29;;;;;;;11.98;2.25;;;;;;;;;;6218095;23;20020;-83
2023/03/03 21:42:02;;;;;;;25.08;3.47;;;;;;;;;;6217021;23;20413;-83
2023/03/03 21:44:34;;;;;;;19.98;3.00;;;;;;;;;;6217456;23;20523;-83
2023/03/03 21:47:04;;;;;;;20.17;3.10;;;;;;;;;;6215885;23;20024;-84
2023/03/03 21:49:32;;;;;;;11.90;2.00;;;;;;;;;;6329118;22;20026;-83
2023/03/03 21:52:01;;;;;;;18.08;2.83;;;;;;;;;;6347942;22;20029;-84
2023/03/03 21:54:28;;;;;;;11.73;2.40;;;;;;;;;;6375920;22;20018;-83
2023/03/03 21:56:56;;;;;;;10.93;1.73;;;;;;;;;;6336725;22;20366;-84
2023/03/03 21:59:28;;;;;;;18.73;2.58;;;;;;;;;;6376070;22;20022;-83
2023/03/03 22:02:00;;;;;;;12.85;2.22;;;;;;;;;;6374155;22;20037;-84
2023/03/03 22:04:33;;;;;;;12.32;2.20;;;;;;;;;;6348813;22;20089;-84
2023/03/03 22:07:02;;;;;;;14.93;1.73;;;;;;;;;;6322266;22;20465;-84
2023/03/03 22:09:37;;;;;;;10.15;1.85;;;;;;;;;;6349732;22;20045;-84
2023/03/03 22:12:05;;;;;;;15.35;2.42;;;;;;;;;;6375040;22;20418;-84
2023/03/03 22:14:32;;;;;;;14.82;2.10;;;;;;;;;;6375535;22;20093;-84
2023/03/03 22:17:00;;;;;;;14.18;2.20;;;;;;;;;;6374330;22;20022;-84
2023/03/03 22:19:46;;;;;;;8.23;1.50;;;;;;;;;;6351178;22;20025;-85
2023/03/03 22:25:44;;;;;;;12.35;1.33;;;;;;;;;;6375783;22;20015;-85
2023/03/03 22:28:30;;;;;;;9.65;1.90;;;;;;;;;;6374959;22;20438;-84
2023/03/03 22:31:12;;;;;;;12.55;2.03;;;;;;;;;;6350173;22;20026;-84
2023/03/03 22:33:48;;;;;;;13.65;1.88;;;;;;;;;;6373782;22;20029;-84
2023/03/03 22:36:22;;;;;;;7.30;1.45;;;;;;;;;;6337093;22;20027;-84
2023/03/03 22:38:50;;;;;;;22.00;2.35;;;;;;;;;;6311120;22;20026;-84
2023/03/03 22:41:24;;;;;;;16.05;2.08;;;;;;;;;;6312982;22;20026;-84
2023/03/03 22:43:56;;;;;;;11.52;1.77;;;;;;;;;;6346792;22;20013;-83
2023/03/03 22:46:24;;;;;;;12.50;2.10;;;;;;;;;;6374790;22;20018;-84
2023/03/03 22:48:54;;;;;;;12.43;2.35;;;;;;;;;;6373000;22;20019;-84
2023/03/03 22:51:28;;;;;;;15.85;2.13;;;;;;;;;;6375007;22;20014;-84
2023/03/03 22:53:56;;;;;;;14.63;2.00;;;;;;;;;;6374831;22;20398;-84
2023/03/03 22:56:24;;;;;;;15.27;2.42;;;;;;;;;;6347550;22;20022;-84
2023/03/03 22:59:18;;;;;;;17.27;1.88;;;;;;;;;;6375379;22;20022;-84
2023/03/03 23:01:48;;;;;;;10.65;1.55;;;;;;;;;;6373596;22;20024;-85
2023/03/03 23:05:10;;;;;;;16.35;2.05;;;;;;;;;;6324088;22;20462;-86
2023/03/03 23:09:02;;;;;;;12.95;2.20;;;;;;;;;;6375613;22;20467;-86
2023/03/03 23:13:28;;;;;;;17.35;2.85;;;;;;;;;;6364537;22;20033;-86
2023/03/03 23:17:38;;;;;;;15.15;2.28;;;;;;;;;;6329064;22;20065;-85
2023/03/03 23:21:06;;;;;;;17.20;2.42;;;;;;;;;;6364278;22;20026;-86
2023/03/03 23:23:54;;;;;;;8.10;2.13;;;;;;;;;;6294834;22;20046;-84
2023/03/03 23:26:24;;;;;;;15.32;2.00;;;;;;;;;;6378216;22;20046;-84